createdAt,value
2022-11-24T00:02:09.444Z,87.05
2022-11-24T00:04:52.909Z,86.52
2022-11-24T00:07:36.007Z,86.90
2022-11-24T00:10:19.108Z,86.16
2022-11-24T00:13:02.101Z,86.18
2022-11-24T00:15:45.260Z,86.10
2022-11-24T00:18:29.629Z,85.70
2022-11-24T00:21:13.276Z,84.53
2022-11-24T00:23:56.282Z,86.01
2022-11-24T00:26:39.328Z,86.64
2022-11-24T00:29:22.348Z,87.01
2022-11-24T00:32:06.560Z,86.04
2022-11-24T00:34:50.938Z,86.78
2022-11-24T00:37:33.942Z,86.74
2022-11-24T00:40:17.280Z,86.26
2022-11-24T00:43:00.575Z,86.62
2022-11-24T00:45:44.014Z,87.49
2022-11-24T00:48:27.209Z,86.31
2022-11-24T00:51:14.671Z,87.27
2022-11-24T00:53:57.790Z,85.74
2022-11-24T00:56:40.788Z,86.24
2022-11-24T00:59:23.767Z,85.49
2022-11-24T01:02:07.526Z,86.55
2022-11-24T01:04:50.574Z,86.73
2022-11-24T01:07:35.032Z,87.55
2022-11-24T01:10:18.370Z,86.31
2022-11-24T01:13:01.638Z,86.67
2022-11-24T01:15:44.695Z,86.68
2022-11-24T01:18:27.749Z,87.36
2022-11-24T01:21:10.927Z,86.60
2022-11-24T01:23:55.316Z,86.32
2022-11-24T01:26:39.077Z,86.15
2022-11-24T01:29:22.246Z,86.96
2022-11-24T01:32:05.717Z,86.51
2022-11-24T01:34:49.192Z,86.70
2022-11-24T01:37:32.183Z,86.14
2022-11-24T01:40:17.187Z,85.93
2022-11-24T01:43:00.176Z,86.78
2022-11-24T01:45:43.290Z,86.82
2022-11-24T01:48:29.845Z,87.00
2022-11-24T01:51:16.159Z,87.40
2022-11-24T01:54:03.829Z,87.29
2022-11-24T01:56:52.789Z,86.96
2022-11-24T01:59:36.121Z,87.22
2022-11-24T02:02:20.569Z,86.90
2022-11-24T02:05:07.803Z,86.13
2022-11-24T02:07:53.454Z,85.24
2022-11-24T02:10:37.201Z,85.56
2022-11-24T02:13:22.912Z,84.99
2022-11-24T02:16:08.001Z,85.49
2022-11-24T02:18:51.090Z,85.30
2022-11-24T02:21:34.156Z,84.59
2022-11-24T02:24:23.278Z,84.76
2022-11-24T02:27:07.887Z,84.85
2022-11-24T02:29:51.251Z,84.02
2022-11-24T02:32:34.759Z,84.35
2022-11-24T02:35:17.798Z,84.40
2022-11-24T02:38:00.974Z,83.62
2022-11-24T02:40:47.608Z,84.40
2022-11-24T02:43:35.360Z,83.96
2022-11-24T02:46:18.515Z,83.09
2022-11-24T02:49:01.553Z,83.02
2022-11-24T02:51:44.524Z,84.31
2022-11-24T02:54:27.844Z,83.46
2022-11-24T02:57:11.540Z,82.31
2022-11-24T02:59:55.937Z,82.44
2022-11-24T03:02:39.046Z,82.24
2022-11-24T03:05:22.204Z,82.84
2022-11-24T03:08:05.617Z,82.50
2022-11-24T03:10:49.238Z,82.59
2022-11-24T03:13:32.229Z,82.73
2022-11-24T03:16:16.616Z,82.09
2022-11-24T03:19:00.097Z,82.55
2022-11-24T03:21:43.090Z,83.12
2022-11-24T03:24:26.133Z,84.00
2022-11-24T03:27:09.221Z,82.91
2022-11-24T03:29:52.341Z,82.37
2022-11-24T03:32:36.681Z,81.06
2022-11-24T03:35:19.705Z,80.60
2022-11-24T03:38:02.822Z,79.49
2022-11-24T03:40:45.836Z,79.78
2022-11-24T03:43:28.860Z,80.56
2022-11-24T03:46:12.215Z,80.22
2022-11-24T03:48:56.738Z,79.82
2022-11-24T03:51:39.810Z,80.09
2022-11-24T03:54:22.792Z,80.11
2022-11-24T03:57:05.837Z,80.25
2022-11-24T03:59:48.885Z,79.44
2022-11-24T04:02:31.995Z,78.58
2022-11-24T04:05:16.592Z,77.29
2022-11-24T04:08:02.997Z,79.08
2022-11-24T04:10:46.016Z,79.69
2022-11-24T04:13:28.731Z,79.62
2022-11-24T04:16:11.800Z,79.67
2022-11-24T04:18:55.088Z,80.68
2022-11-24T04:21:39.490Z,79.80
2022-11-24T04:24:22.544Z,79.76
2022-11-24T04:27:05.620Z,80.54
2022-11-24T04:29:48.635Z,81.23
2022-11-24T04:32:31.668Z,81.30
2022-11-24T04:35:15.145Z,83.06
2022-11-24T04:38:03.448Z,81.88
2022-11-24T04:40:46.454Z,83.08
2022-11-24T04:43:29.510Z,82.66
2022-11-24T04:46:12.991Z,82.27
2022-11-24T04:48:56.054Z,82.09
2022-11-24T04:51:39.324Z,81.92
2022-11-24T04:54:23.950Z,81.28
2022-11-24T04:57:06.988Z,80.73
2022-11-24T04:59:50.765Z,80.33
2022-11-24T05:02:33.788Z,80.02
2022-11-24T05:05:16.896Z,79.94
2022-11-24T05:08:00.653Z,80.13
2022-11-24T05:10:45.334Z,79.79
2022-11-24T05:13:28.383Z,79.69
2022-11-24T05:16:11.782Z,80.28
2022-11-24T05:18:54.838Z,80.18
2022-11-24T05:21:38.096Z,79.54
2022-11-24T05:24:21.118Z,79.36
2022-11-24T05:27:05.486Z,78.79
2022-11-24T05:29:48.610Z,78.24
2022-11-24T05:32:31.721Z,78.63
2022-11-24T05:35:15.130Z,78.79
2022-11-24T05:37:59.644Z,78.70
2022-11-24T05:40:43.020Z,78.53
2022-11-24T05:43:27.589Z,77.75
2022-11-24T05:46:10.655Z,77.58
2022-11-24T05:48:53.707Z,77.12
2022-11-24T05:51:36.773Z,77.26
2022-11-24T05:54:19.806Z,76.65
2022-11-24T05:57:02.843Z,76.92
2022-11-24T05:59:47.509Z,76.92
2022-11-24T06:02:30.751Z,77.28
2022-11-24T06:05:13.848Z,77.72
2022-11-24T06:07:57.317Z,78.16
2022-11-24T06:10:40.429Z,77.99
2022-11-24T06:13:23.516Z,76.83
2022-11-24T06:16:08.469Z,76.26
2022-11-24T06:18:51.498Z,76.51
2022-11-24T06:21:34.483Z,76.35
2022-11-24T06:24:17.552Z,76.16
2022-11-24T06:27:00.616Z,75.95
2022-11-24T06:29:43.799Z,76.36
2022-11-24T06:32:28.341Z,76.76
2022-11-24T06:35:11.392Z,75.03
2022-11-24T06:37:54.499Z,73.34
2022-11-24T06:40:37.577Z,74.15
2022-11-24T06:43:20.643Z,73.99
2022-11-24T06:46:04.743Z,72.40
2022-11-24T06:48:49.424Z,71.03
2022-11-24T06:51:32.552Z,69.71
2022-11-24T06:54:17.457Z,67.07
2022-11-24T06:57:01.319Z,64.48
2022-11-24T06:59:44.382Z,64.33
2022-11-24T07:02:27.464Z,67.41
2022-11-24T07:05:12.050Z,67.59
2022-11-24T07:07:55.424Z,68.77
2022-11-24T07:10:38.753Z,70.42
2022-11-24T07:13:21.891Z,71.02
2022-11-24T07:16:13.171Z,72.29
2022-11-24T07:18:56.444Z,72.80
2022-11-24T07:21:41.116Z,73.18
2022-11-24T07:24:24.215Z,74.64
2022-11-24T07:27:07.182Z,73.72
2022-11-24T07:29:50.201Z,74.09
2022-11-24T07:32:33.164Z,73.97
2022-11-24T07:35:16.359Z,74.45
2022-11-24T07:38:00.874Z,72.29
2022-11-24T07:40:44.106Z,71.90
2022-11-24T07:43:27.116Z,70.19
2022-11-24T07:46:13.654Z,69.97
2022-11-24T07:48:56.846Z,68.58
2022-11-24T07:51:39.888Z,66.73
2022-11-24T07:54:24.353Z,64.37
2022-11-24T07:57:07.354Z,64.59
2022-11-24T07:59:50.402Z,63.84
2022-11-24T08:02:35.767Z,65.05
2022-11-24T08:05:18.876Z,66.45
2022-11-24T08:08:01.976Z,66.77
2022-11-24T08:10:46.412Z,68.09
2022-11-24T08:13:29.524Z,68.31
2022-11-24T08:16:15.124Z,69.61
2022-11-24T08:18:58.314Z,69.88
2022-11-24T08:21:41.346Z,70.45
2022-11-24T08:24:24.466Z,71.32
2022-11-24T08:27:08.861Z,71.87
2022-11-24T08:29:51.928Z,72.27
2022-11-24T08:32:35.014Z,72.87
2022-11-24T08:35:18.266Z,74.12
2022-11-24T08:38:04.789Z,74.38
2022-11-24T08:40:48.055Z,74.45
2022-11-24T08:43:32.973Z,74.51
2022-11-24T08:46:17.934Z,74.00
2022-11-24T08:49:01.290Z,75.13
2022-11-24T08:51:44.405Z,75.26
2022-11-24T08:54:28.077Z,74.96
2022-11-24T08:57:11.191Z,74.89
2022-11-24T08:59:55.672Z,75.48
2022-11-24T09:02:38.880Z,75.93
2022-11-24T09:05:50.278Z,75.46
2022-11-24T09:08:24.992Z,75.76
2022-11-24T09:11:09.840Z,76.96
2022-11-24T09:13:53.292Z,76.86
2022-11-24T09:16:38.056Z,75.81
2022-11-24T09:19:21.179Z,76.33
2022-11-24T09:22:04.960Z,76.28
2022-11-24T09:24:48.030Z,75.31
2022-11-24T09:27:31.170Z,74.32
2022-11-24T09:30:15.088Z,72.76
2022-11-24T09:32:59.528Z,73.13
2022-11-24T09:35:42.650Z,72.00
2022-11-24T09:38:25.845Z,70.75
2022-11-24T09:41:48.758Z,70.87
2022-11-24T09:45:04.216Z,70.75
2022-11-24T09:47:59.630Z,68.87
2022-11-24T09:50:47.258Z,68.19
2022-11-24T09:53:35.763Z,68.20
2022-11-24T09:56:22.432Z,68.27
2022-11-24T09:59:11.984Z,67.95
2022-11-24T10:01:55.933Z,65.33
2022-11-24T10:04:43.347Z,65.81
2022-11-24T10:07:31.957Z,65.38
2022-11-24T10:10:24.525Z,64.42
2022-11-24T10:13:26.717Z,64.83
2022-11-24T10:16:19.557Z,64.04
2022-11-24T10:19:13.109Z,63.84
2022-11-24T10:22:07.492Z,63.32
2022-11-24T10:25:09.307Z,61.61
2022-11-24T10:28:00.009Z,63.46
2022-11-24T10:30:43.791Z,62.57
2022-11-24T10:33:30.800Z,61.95
2022-11-24T10:36:20.544Z,61.37
2022-11-24T10:39:12.310Z,60.98
2022-11-24T10:42:02.629Z,63.19
2022-11-24T10:44:45.786Z,62.99
2022-11-24T10:47:29.695Z,63.09
2022-11-24T10:50:21.687Z,62.80
2022-11-24T10:53:15.758Z,62.86
2022-11-24T10:56:01.076Z,62.87
2022-11-24T10:58:45.615Z,62.90
2022-11-24T11:01:33.377Z,63.00
2022-11-24T11:04:21.093Z,62.89
2022-11-24T11:07:19.414Z,61.93
2022-11-24T11:10:23.264Z,63.53
2022-11-24T11:13:25.752Z,62.35
2022-11-24T11:16:25.599Z,61.19
2022-11-24T11:19:48.474Z,59.51
2022-11-24T11:22:34.135Z,58.87
2022-11-24T11:25:23.437Z,58.52
2022-11-24T11:28:23.044Z,59.38
2022-11-24T11:31:18.032Z,60.89
2022-11-24T11:34:22.079Z,60.95
2022-11-24T11:37:07.838Z,60.61
2022-11-24T11:39:52.413Z,60.32
2022-11-24T11:43:01.917Z,60.89
2022-11-24T11:45:47.733Z,62.61
2022-11-24T11:48:42.425Z,61.74
2022-11-24T11:51:43.282Z,63.42
2022-11-24T11:54:43.410Z,62.50
2022-11-24T11:57:37.694Z,62.82
2022-11-24T12:00:22.163Z,63.16
2022-11-24T12:03:50.003Z,62.97
2022-11-24T12:06:53.302Z,62.64
2022-11-24T12:09:51.525Z,62.54
2022-11-24T12:13:08.451Z,64.15
2022-11-24T12:15:56.118Z,64.28
2022-11-24T12:18:57.561Z,64.06
2022-11-24T12:21:52.138Z,62.09
2022-11-24T12:24:45.921Z,62.53
2022-11-24T12:27:40.056Z,62.14
2022-11-24T12:30:24.019Z,61.12
2022-11-24T12:33:23.928Z,61.27
2022-11-24T12:36:14.977Z,58.71
2022-11-24T12:39:06.808Z,59.37
2022-11-24T12:42:01.868Z,58.77
2022-11-24T12:44:59.951Z,58.46
2022-11-24T12:48:06.987Z,58.30
2022-11-24T12:50:52.802Z,58.12
2022-11-24T12:53:38.649Z,58.20
2022-11-24T12:56:30.851Z,57.65
2022-11-24T12:59:23.853Z,57.32
2022-11-24T13:02:22.264Z,56.31
2022-11-24T13:05:20.208Z,58.63
2022-11-24T13:08:05.887Z,58.33
2022-11-24T13:14:00.767Z,59.70
2022-11-24T13:20:16.003Z,59.49
2022-11-24T13:23:02.762Z,59.50
2022-11-24T13:26:15.920Z,59.07
2022-11-24T13:29:18.373Z,59.11
2022-11-24T13:32:52.851Z,59.49
2022-11-24T13:35:35.924Z,60.51
2022-11-24T13:38:40.901Z,58.20
2022-11-24T13:42:10.332Z,58.45
2022-11-24T13:49:02.428Z,58.61
2022-11-24T13:51:45.860Z,58.69
2022-11-24T13:54:30.102Z,59.12
2022-11-24T13:57:34.435Z,59.40
2022-11-24T14:00:21.616Z,60.29
2022-11-24T14:03:14.587Z,59.18
2022-11-24T14:06:00.525Z,59.47
2022-11-24T14:08:47.028Z,58.98
2022-11-24T14:11:30.409Z,60.44
2022-11-24T14:14:22.947Z,60.29
2022-11-24T14:17:24.365Z,60.30
2022-11-24T14:20:18.404Z,61.37
2022-11-24T14:23:03.084Z,61.60
2022-11-24T14:25:50.322Z,61.70
2022-11-24T14:28:33.496Z,62.01
2022-11-24T14:31:23.006Z,62.18
2022-11-24T14:34:16.595Z,61.34
2022-11-24T14:37:01.654Z,62.11
2022-11-24T14:39:46.255Z,62.56
2022-11-24T14:42:29.646Z,61.63
2022-11-24T14:45:19.556Z,60.87
2022-11-24T14:48:02.784Z,61.28
2022-11-24T14:50:46.005Z,60.89
2022-11-24T14:53:29.299Z,61.02
2022-11-24T14:56:24.405Z,60.82
2022-11-24T14:59:23.253Z,59.10
2022-11-24T15:02:40.613Z,59.80
2022-11-24T15:05:25.985Z,59.54
2022-11-24T15:08:14.436Z,60.42
2022-11-24T15:11:00.882Z,60.39
2022-11-24T15:13:55.228Z,60.34
2022-11-24T15:16:41.292Z,59.88
2022-11-24T15:19:29.644Z,60.39
2022-11-24T15:22:38.060Z,59.70
2022-11-24T15:25:33.749Z,60.42
2022-11-24T15:28:17.063Z,60.36
2022-11-24T15:31:04.063Z,59.84
2022-11-24T15:33:47.210Z,60.01
2022-11-24T15:36:30.308Z,59.18
2022-11-24T15:39:13.405Z,60.10
2022-11-24T15:41:56.558Z,60.79
2022-11-24T15:44:39.639Z,61.37
2022-11-24T15:47:24.236Z,60.68
2022-11-24T15:50:08.742Z,60.00
2022-11-24T15:52:51.983Z,61.28
2022-11-24T15:55:35.833Z,60.37
2022-11-24T15:58:18.998Z,61.46
2022-11-24T16:01:02.102Z,60.40
2022-11-24T16:03:48.167Z,61.15
2022-11-24T16:06:32.243Z,61.34
2022-11-24T16:09:17.329Z,61.47
2022-11-24T16:12:00.504Z,61.38
2022-11-24T16:14:43.716Z,61.01
2022-11-24T16:17:26.962Z,61.94
2022-11-24T16:20:12.647Z,62.11
2022-11-24T16:22:56.115Z,61.78
2022-11-24T16:25:39.308Z,61.88
2022-11-24T16:28:22.480Z,61.94
2022-11-24T16:31:05.626Z,62.53
2022-11-24T16:33:48.821Z,63.09
2022-11-24T16:36:33.334Z,63.31
2022-11-24T16:39:16.473Z,62.16
2022-11-24T16:41:59.505Z,62.30
2022-11-24T16:44:42.735Z,64.29
2022-11-24T16:47:25.833Z,64.03
2022-11-24T16:50:10.517Z,64.69
2022-11-24T16:52:54.939Z,64.33
2022-11-24T16:55:37.992Z,64.79
2022-11-24T16:58:21.037Z,64.33
2022-11-24T17:01:05.337Z,64.79
2022-11-24T17:03:48.562Z,65.45
2022-11-24T17:06:33.854Z,64.96
2022-11-24T17:09:18.920Z,64.94
2022-11-24T17:12:02.005Z,65.89
2022-11-24T17:15:03.118Z,64.87
2022-11-24T17:18:16.300Z,64.42
2022-11-24T17:20:51.164Z,64.02
2022-11-24T17:23:34.413Z,64.20
2022-11-24T17:26:19.152Z,63.81
2022-11-24T17:29:02.232Z,63.98
2022-11-24T17:31:45.373Z,64.06
2022-11-24T17:34:28.487Z,63.99
2022-11-24T17:37:11.538Z,63.36
2022-11-24T17:40:20.370Z,63.99
2022-11-24T17:43:00.762Z,63.24
2022-11-24T17:45:43.828Z,63.59
2022-11-24T17:48:26.985Z,63.43
2022-11-24T17:51:13.931Z,63.67
2022-11-24T17:53:57.394Z,63.43
2022-11-24T17:56:42.706Z,63.87
2022-11-24T17:59:27.370Z,64.10
2022-11-24T18:02:11.608Z,63.74
2022-11-24T18:04:54.713Z,63.46
2022-11-24T18:07:37.901Z,62.97
2022-11-24T18:10:21.111Z,62.80
2022-11-24T18:13:04.267Z,63.01
2022-11-24T18:15:48.637Z,63.14
2022-11-24T18:18:36.529Z,62.92
2022-11-24T18:21:22.347Z,62.40
2022-11-24T18:24:05.767Z,63.09
2022-11-24T18:26:51.334Z,62.49
2022-11-24T18:29:34.517Z,62.68
2022-11-24T18:32:19.064Z,62.30
2022-11-24T18:35:02.123Z,62.45
2022-11-24T18:37:45.181Z,63.05
2022-11-24T18:40:28.281Z,62.68
2022-11-24T18:43:11.311Z,62.45
2022-11-24T18:45:55.205Z,62.19
2022-11-24T18:48:40.065Z,62.77
2022-11-24T18:51:23.654Z,63.04
2022-11-24T18:54:06.828Z,62.84
2022-11-24T18:56:50.009Z,62.25
2022-11-24T18:59:33.077Z,62.37
2022-11-24T19:02:16.236Z,62.54
2022-11-24T19:05:00.818Z,62.89
2022-11-24T19:07:44.306Z,63.24
2022-11-24T19:10:27.423Z,62.67
2022-11-24T19:13:10.448Z,62.65
2022-11-24T19:15:53.623Z,61.76
2022-11-24T19:18:36.716Z,62.83
2022-11-24T19:21:21.449Z,62.09
2022-11-24T19:24:05.824Z,62.89
2022-11-24T19:26:49.032Z,62.06
2022-11-24T19:29:32.273Z,63.21
2022-11-24T19:32:16.946Z,62.28
2022-11-24T19:35:00.252Z,63.16
2022-11-24T19:37:45.036Z,63.32
2022-11-24T19:40:28.120Z,62.60
2022-11-24T19:43:11.480Z,63.43
2022-11-24T19:45:54.669Z,61.99
2022-11-24T19:48:39.099Z,63.21
2022-11-24T19:51:25.714Z,62.65
2022-11-24T19:54:12.971Z,62.88
2022-11-24T19:56:56.636Z,63.81
2022-11-24T19:59:39.765Z,63.37
2022-11-24T20:02:22.862Z,63.58
2022-11-24T20:05:06.385Z,62.85
2022-11-24T20:07:49.719Z,63.33
2022-11-24T20:10:34.311Z,63.49
2022-11-24T20:13:17.393Z,63.51
2022-11-24T20:16:04.953Z,63.65
2022-11-24T20:18:48.969Z,62.07
2022-11-24T20:21:32.756Z,63.96
2022-11-24T20:24:17.649Z,63.27
2022-11-24T20:27:03.188Z,63.19
2022-11-24T20:29:47.102Z,63.57
2022-11-24T20:32:30.252Z,63.59
2022-11-24T20:35:18.020Z,63.84
2022-11-24T20:38:01.514Z,63.94
2022-11-24T20:40:44.515Z,64.03
2022-11-24T20:43:31.343Z,64.08
2022-11-24T20:46:19.436Z,63.04
2022-11-24T20:49:03.969Z,64.40
2022-11-24T20:51:48.186Z,63.73
2022-11-24T20:54:31.347Z,64.99
2022-11-24T20:57:14.512Z,65.72
2022-11-24T20:59:58.966Z,64.88
2022-11-24T21:02:42.105Z,66.01
2022-11-24T21:05:25.365Z,65.64
2022-11-24T21:08:08.447Z,65.36
2022-11-24T21:10:56.050Z,65.49
2022-11-24T21:13:40.062Z,65.56
2022-11-24T21:16:26.594Z,65.56
2022-11-24T21:19:12.475Z,65.16
2022-11-24T21:21:55.545Z,65.23
2022-11-24T21:24:38.590Z,64.25
2022-11-24T21:27:21.616Z,64.05
2022-11-24T21:30:05.124Z,65.63
2022-11-24T21:32:49.749Z,65.27
2022-11-24T21:35:36.098Z,65.84
2022-11-24T21:38:19.583Z,66.22
2022-11-24T21:41:03.280Z,66.37
2022-11-24T21:43:46.831Z,67.58
2022-11-24T21:46:38.971Z,67.07
2022-11-24T21:49:26.826Z,67.53
2022-11-24T21:52:09.865Z,66.80
2022-11-24T21:54:52.931Z,66.27
2022-11-24T21:57:35.976Z,67.39
2022-11-24T22:00:20.214Z,67.20
2022-11-24T22:03:03.219Z,67.42
2022-11-24T22:05:55.527Z,67.75
2022-11-24T22:08:38.587Z,67.52
2022-11-24T22:11:23.772Z,67.97
2022-11-24T22:14:06.825Z,67.26
2022-11-24T22:16:49.983Z,66.86
2022-11-24T22:19:33.282Z,67.18
2022-11-24T22:22:17.772Z,66.69
2022-11-24T22:25:00.848Z,66.20
2022-11-24T22:27:44.136Z,66.43
2022-11-24T22:30:27.295Z,66.59
2022-11-24T22:33:10.387Z,65.85
2022-11-24T22:35:59.932Z,65.26
2022-11-24T22:38:44.790Z,64.16
2022-11-24T22:41:27.952Z,63.24
2022-11-24T22:44:11.024Z,63.92
2022-11-24T22:46:54.112Z,63.98
2022-11-24T22:49:37.112Z,63.93
2022-11-24T22:52:20.196Z,63.93
2022-11-24T22:55:04.824Z,63.48
2022-11-24T22:57:48.532Z,64.30
2022-11-24T23:00:32.052Z,65.14
2022-11-24T23:03:15.205Z,64.56
2022-11-24T23:06:00.665Z,65.26
2022-11-24T23:08:43.781Z,64.47
2022-11-24T23:11:35.124Z,64.83
2022-11-24T23:14:20.736Z,64.44
2022-11-24T23:17:03.825Z,64.71
2022-11-24T23:19:46.930Z,65.33
2022-11-24T23:22:29.986Z,65.00
2022-11-24T23:25:13.126Z,65.79
2022-11-24T23:27:57.647Z,65.56
2022-11-24T23:30:40.708Z,66.01
2022-11-24T23:33:23.740Z,65.48
2022-11-24T23:36:09.021Z,65.58
2022-11-24T23:38:52.087Z,66.01
2022-11-24T23:41:35.279Z,65.46
2022-11-24T23:44:19.885Z,65.51
2022-11-24T23:47:02.899Z,64.86
2022-11-24T23:49:45.932Z,65.61
2022-11-24T23:52:31.286Z,65.54
2022-11-24T23:55:14.288Z,65.92
2022-11-24T23:57:57.291Z,65.17
